Time;durP1;ratioP1;P1;durP2;ratioP2;P2;SDS_P1;SDS_P2;PMS_P1;PMS_P2;Temp;Humidity;BMP_temperature;BMP_pressure;BME280_temperature;BME280_humidity;BME280_pressure;Samples;Min_cycle;Max_cycle;Signal;HPM_P1;HPM_P2
2022/04/25 00:00:09;;;;;;;1.75;1.00;;;;;;;8.43;100.00;99850.06;7394355;19;20037;-55
2022/04/25 00:02:39;;;;;;;1.30;0.50;;;;;;;8.32;100.00;99856.06;7395997;19;20455;-55
2022/04/25 00:05:05;;;;;;;0.70;0.70;;;;;;;8.30;100.00;99850.22;7396265;19;20522;-55
2022/04/25 00:07:31;;;;;;;3.88;1.05;;;;;;;8.31;100.00;99858.09;7394206;19;20486;-55
2022/04/25 00:09:57;;;;;;;2.95;0.65;;;;;;;8.43;100.00;99850.06;7394928;19;20021;-55
2022/04/25 00:12:24;;;;;;;0.90;0.90;;;;;;;8.50;100.00;99858.88;7398948;19;20011;-55
2022/04/25 00:14:50;;;;;;;0.52;0.52;;;;;;;8.47;100.00;99853.50;7393819;19;20486;-55
2022/04/25 00:17:17;;;;;;;1.05;0.40;;;;;;;8.51;100.00;99854.13;7395488;19;20455;-55
2022/04/25 00:19:43;;;;;;;1.85;1.05;;;;;;;8.65;100.00;99851.50;7394837;19;20002;-55
2022/04/25 00:22:10;;;;;;;3.85;0.50;;;;;;;8.63;100.00;99848.41;7397891;19;20029;-55
2022/04/25 00:24:36;;;;;;;1.40;0.90;;;;;;;8.59;100.00;99861.66;7396463;19;20507;-55
2022/04/25 00:27:02;;;;;;;2.55;1.17;;;;;;;8.59;100.00;99856.13;7394918;19;20002;-55
2022/04/25 00:29:29;;;;;;;0.50;0.50;;;;;;;8.57;100.00;99858.59;7393624;19;20040;-55
2022/04/25 00:31:55;;;;;;;3.22;1.10;;;;;;;8.50;100.00;99847.78;7398901;19;20022;-55
2022/04/25 00:34:21;;;;;;;5.05;0.80;;;;;;;8.49;100.00;99846.22;7394106;19;20014;-55
2022/04/25 00:36:47;;;;;;;0.63;0.63;;;;;;;8.48;100.00;99850.25;7394696;19;20006;-55
2022/04/25 00:39:13;;;;;;;0.50;0.50;;;;;;;8.40;100.00;99851.78;7393526;19;20018;-55
2022/04/25 00:41:39;;;;;;;0.70;0.47;;;;;;;8.37;100.00;99845.16;7396750;19;20011;-55
2022/04/25 00:44:05;;;;;;;1.05;0.50;;;;;;;8.34;100.00;99846.06;7391692;19;20031;-55
2022/04/25 00:46:35;;;;;;;0.55;0.55;;;;;;;8.32;100.00;99845.75;7393973;19;20019;-56
2022/04/25 00:49:01;;;;;;;1.10;1.02;;;;;;;8.26;100.00;99838.50;7393476;19;20011;-54
2022/04/25 00:51:27;;;;;;;5.30;1.75;;;;;;;8.36;100.00;99837.28;7393291;19;20007;-55
2022/04/25 00:53:53;;;;;;;9.73;1.05;;;;;;;8.38;100.00;99837.59;7393233;19;20014;-54
2022/04/25 00:56:19;;;;;;;1.20;1.10;;;;;;;8.37;100.00;99841.59;7393697;19;20484;-55
2022/04/25 00:58:46;;;;;;;2.03;1.08;;;;;;;8.35;100.00;99835.75;7393468;19;20031;-54
2022/04/25 01:01:13;;;;;;;0.60;0.60;;;;;;;8.34;100.00;99836.97;7395663;19;20015;-54
2022/04/25 01:03:39;;;;;;;0.77;0.77;;;;;;;8.22;100.00;99832.31;7393682;19;20032;-55
2022/04/25 01:06:06;;;;;;;0.85;0.85;;;;;;;8.13;100.00;99829.50;7393715;19;20025;-55
2022/04/25 01:08:34;;;;;;;9.63;0.90;;;;;;;8.16;100.00;99836.91;7392090;19;20087;-55
2022/04/25 01:11:04;;;;;;;3.67;1.05;;;;;;;8.21;100.00;99825.97;7395601;19;20070;-55
2022/04/25 01:13:31;;;;;;;1.33;1.20;;;;;;;8.18;100.00;99832.47;7393226;19;20459;-56
2022/04/25 01:15:58;;;;;;;2.45;0.85;;;;;;;8.18;100.00;99821.38;7394470;19;20045;-56
2022/04/25 01:18:24;;;;;;;0.65;0.65;;;;;;;8.13;100.00;99823.97;7391608;19;20095;-55
2022/04/25 01:20:55;;;;;;;1.17;0.75;;;;;;;8.07;100.00;99825.81;7394199;19;20531;-55
2022/04/25 01:28:53;;;;;;;1.00;0.93;;;;;;;7.77;100.00;99819.13;7392321;19;20018;-55
2022/04/25 01:31:20;;;;;;;0.88;0.82;;;;;;;7.67;100.00;99819.53;7395876;19;20022;-54
2022/04/25 01:33:46;;;;;;;0.70;0.65;;;;;;;7.51;100.00;99821.28;7394068;19;20481;-55
2022/04/25 01:36:12;;;;;;;0.95;0.95;;;;;;;7.44;100.00;99818.03;7393312;19;20496;-54
2022/04/25 01:38:38;;;;;;;1.27;1.17;;;;;;;7.51;100.00;99818.53;7392929;19;20015;-54
2022/04/25 01:41:05;;;;;;;1.58;1.48;;;;;;;7.51;100.00;99807.44;7394325;19;20082;-54
2022/04/25 01:43:37;;;;;;;3.38;1.95;;;;;;;7.78;100.00;99812.31;7393084;19;20074;-54
2022/04/25 01:46:04;;;;;;;0.85;0.85;;;;;;;7.94;100.00;99825.16;7393212;19;20504;-54
2022/04/25 01:48:31;;;;;;;13.25;1.08;;;;;;;7.93;100.00;99810.50;7391721;19;20042;-54
2022/04/25 01:50:57;;;;;;;2.65;1.77;;;;;;;7.85;100.00;99812.03;7393420;19;20422;-54
2022/04/25 01:53:24;;;;;;;0.43;0.43;;;;;;;7.83;100.00;99816.50;7396329;19;20015;-54
2022/04/25 01:55:51;;;;;;;0.75;0.75;;;;;;;7.75;100.00;99810.47;7399396;19;20010;-54
2022/04/25 01:58:17;;;;;;;1.80;1.15;;;;;;;7.78;100.00;99814.31;7400100;19;20015;-54
2022/04/25 02:00:44;;;;;;;0.77;0.43;;;;;;;7.92;100.00;99816.53;7396678;19;20354;-54
2022/04/25 02:03:10;;;;;;;0.73;0.73;;;;;;;7.96;100.00;99808.84;7399271;19;20010;-54
2022/04/25 02:05:37;;;;;;;0.60;0.60;;;;;;;8.08;100.00;99821.78;7399460;19;20010;-54
2022/04/25 02:08:03;;;;;;;4.35;0.70;;;;;;;8.08;100.00;99819.78;7399199;19;20340;-54
2022/04/25 02:10:29;;;;;;;1.38;0.57;;;;;;;8.04;100.00;99832.25;7398952;19;20078;-54
2022/04/25 02:12:55;;;;;;;0.40;0.40;;;;;;;7.99;100.00;99846.75;7398023;19;20467;-54
2022/04/25 02:15:22;;;;;;;0.63;0.63;;;;;;;8.10;100.00;99828.41;7397789;19;20365;-54
2022/04/25 02:17:48;;;;;;;12.18;1.20;;;;;;;8.16;100.00;99828.59;7398225;19;20333;-54
2022/04/25 02:20:15;;;;;;;0.28;0.28;;;;;;;8.13;100.00;99835.06;7396236;19;20023;-55
2022/04/25 02:22:41;;;;;;;0.32;0.20;;;;;;;8.09;100.00;99828.88;7399752;19;20048;-54
2022/04/25 02:25:09;;;;;;;1.30;0.77;;;;;;;8.09;100.00;99824.13;7397679;19;20018;-55
2022/04/25 02:27:35;;;;;;;0.30;0.30;;;;;;;8.23;100.00;99836.59;7400789;19;20053;-54
2022/04/25 02:30:03;;;;;;;0.35;0.32;;;;;;;8.33;100.00;99832.66;7397924;19;20014;-54
2022/04/25 02:32:30;;;;;;;0.45;0.45;;;;;;;8.40;100.00;99837.91;7399805;19;20052;-54
2022/04/25 02:34:57;;;;;;;0.88;0.43;;;;;;;8.33;100.00;99832.66;7396640;19;20022;-54
2022/04/25 02:37:25;;;;;;;1.30;1.30;;;;;;;8.27;100.00;99828.97;7396790;19;20015;-54
2022/04/25 02:39:51;;;;;;;0.60;0.60;;;;;;;8.16;100.00;99828.59;7395796;19;20018;-54
2022/04/25 02:42:17;;;;;;;0.47;0.47;;;;;;;8.16;100.00;99834.94;7400715;19;20035;-54
2022/04/25 02:44:43;;;;;;;0.40;0.40;;;;;;;8.15;100.00;99827.03;7397212;19;20014;-54
2022/04/25 02:47:09;;;;;;;0.30;0.30;;;;;;;8.17;100.00;99830.13;7397730;19;20475;-54
2022/04/25 02:49:35;;;;;;;0.70;0.70;;;;;;;8.09;100.00;99824.13;7397939;19;20011;-54
2022/04/25 02:52:02;;;;;;;0.43;0.43;;;;;;;7.96;100.00;99831.00;7399699;19;20014;-54
2022/04/25 02:54:28;;;;;;;5.45;0.80;;;;;;;7.79;100.00;99843.59;7398115;19;20347;-54
2022/04/25 02:56:55;;;;;;;4.07;0.75;;;;;;;7.63;100.00;99834.28;7394442;19;20018;-56
2022/04/25 02:59:21;;;;;;;0.82;0.82;;;;;;;7.45;100.00;99828.66;7393910;19;20021;-55
2022/04/25 03:01:48;;;;;;;0.63;0.63;;;;;;;7.48;100.00;99838.84;7400002;19;20011;-54
2022/04/25 03:04:14;;;;;;;0.90;0.90;;;;;;;7.45;100.00;99842.53;7397358;19;20030;-54
2022/04/25 03:06:40;;;;;;;0.57;0.57;;;;;;;7.34;100.00;99847.69;7393404;19;20080;-54
2022/04/25 03:09:06;;;;;;;1.08;0.90;;;;;;;7.22;100.00;99845.78;7398065;19;20042;-54
2022/04/25 03:11:34;;;;;;;0.68;0.68;;;;;;;7.09;100.00;99842.31;7401135;19;20014;-54
2022/04/25 03:14:00;;;;;;;10.82;1.15;;;;;;;7.02;100.00;99844.59;7397907;19;20110;-55
2022/04/25 03:16:29;;;;;;;1.55;1.45;;;;;;;6.91;100.00;99846.97;7396648;19;20021;-54
2022/04/25 03:18:58;;;;;;;0.65;0.65;;;;;;;6.84;100.00;99842.47;7397190;19;20071;-54
2022/04/25 03:21:25;;;;;;;1.95;0.80;;;;;;;6.70;100.00;99845.72;7397889;19;20322;-54
2022/04/25 03:23:53;;;;;;;10.25;1.17;;;;;;;6.63;100.00;99848.75;7396531;19;20011;-54
2022/04/25 03:26:19;;;;;;;1.05;0.98;;;;;;;6.61;100.00;99835.38;7397171;19;20021;-54
2022/04/25 03:28:45;;;;;;;1.27;1.27;;;;;;;6.59;100.00;99842.56;7396832;19;20055;-55
2022/04/25 03:31:11;;;;;;;11.98;1.00;;;;;;;6.45;100.00;99849.38;7397894;19;20463;-54
2022/04/25 03:33:37;;;;;;;0.95;0.95;;;;;;;6.36;100.00;99848.53;7396614;19;20006;-54
2022/04/25 03:36:04;;;;;;;1.50;1.50;;;;;;;6.27;100.00;99842.91;7399775;19;20018;-54
2022/04/25 03:38:31;;;;;;;0.63;0.63;;;;;;;6.18;100.00;99845.56;7395203;19;20011;-54
2022/04/25 03:40:57;;;;;;;0.60;0.60;;;;;;;6.13;100.00;99852.44;7394835;19;20078;-54
2022/04/25 03:43:24;;;;;;;2.75;1.15;;;;;;;6.04;100.00;99852.34;7397302;19;20018;-54
2022/04/25 03:45:51;;;;;;;0.98;0.98;;;;;;;6.02;100.00;99847.25;7401029;19;20039;-54
2022/04/25 03:48:17;;;;;;;0.60;0.60;;;;;;;6.03;100.00;99848.03;7394557;19;20483;-54
2022/04/25 03:50:43;;;;;;;1.27;1.17;;;;;;;6.03;100.00;99857.09;7395656;19;20032;-54
2022/04/25 03:53:12;;;;;;;0.77;0.77;;;;;;;6.05;100.00;99849.16;7398644;19;20025;-54
2022/04/25 03:58:24;;;;;;;1.42;1.42;;;;;;;6.10;100.00;99845.81;7398814;19;20484;-54
2022/04/25 04:00:50;;;;;;;1.05;1.05;;;;;;;6.16;100.00;99845.25;7396577;19;20014;-54
2022/04/25 04:03:18;;;;;;;0.77;0.77;;;;;;;6.20;100.00;99849.44;7395167;19;20011;-54
2022/04/25 04:05:45;;;;;;;0.65;0.65;;;;;;;6.11;100.00;99849.34;7394575;19;20054;-54
2022/04/25 04:08:12;;;;;;;2.97;1.00;;;;;;;6.05;100.00;99849.16;7394841;19;20049;-54
2022/04/25 04:10:39;;;;;;;12.82;2.95;;;;;;;5.95;100.00;99855.81;7395478;19;20011;-54
2022/04/25 04:13:05;;;;;;;1.02;1.02;;;;;;;5.86;100.00;99847.41;7395668;19;20017;-54
2022/04/25 04:15:32;;;;;;;1.02;1.02;;;;;;;5.79;100.00;99852.34;7395380;19;20026;-55
2022/04/25 04:17:58;;;;;;;0.77;0.77;;;;;;;5.83;100.00;99850.22;7395031;19;20007;-55
2022/04/25 04:20:24;;;;;;;0.88;0.88;;;;;;;5.83;100.00;99851.00;7395688;19;20011;-54
2022/04/25 04:22:50;;;;;;;0.90;0.90;;;;;;;5.71;100.00;99851.81;7397472;19;20011;-54
2022/04/25 04:25:17;;;;;;;1.05;1.05;;;;;;;5.64;100.00;99852.00;7394288;19;20465;-54
2022/04/25 04:27:43;;;;;;;0.80;0.80;;;;;;;5.62;100.00;99854.44;7393101;19;20003;-54
2022/04/25 04:30:13;;;;;;;0.85;0.85;;;;;;;5.58;100.00;99853.00;7394106;19;20014;-54
2022/04/25 04:32:40;;;;;;;2.05;1.40;;;;;;;5.57;100.00;99860.50;7394390;19;20018;-54
2022/04/25 04:35:11;;;;;;;0.95;0.95;;;;;;;5.52;100.00;99857.53;7393742;19;20019;-54
2022/04/25 04:37:38;;;;;;;1.20;1.13;;;;;;;5.51;100.00;99856.75;7393996;19;20333;-54
2022/04/25 04:42:52;;;;;;;0.95;0.95;;;;;;;5.61;100.00;99850.13;7394103;19;20018;-54
2022/04/25 04:45:18;;;;;;;0.75;0.75;;;;;;;5.59;100.00;99849.78;7392030;19;20386;-54
2022/04/25 04:47:44;;;;;;;4.15;1.33;;;;;;;5.58;100.00;99851.03;7394174;19;20010;-54
2022/04/25 04:50:16;;;;;;;1.17;0.90;;;;;;;5.75;100.00;99849.69;7393553;19;20013;-54
2022/04/25 04:52:42;;;;;;;;;;;;;;;5.76;100.00;99851.22;7396175;19;20352;-56
2022/04/25 04:55:09;;;;;;;0.75;0.75;;;;;;;5.76;100.00;99854.00;7393491;19;19944;-55
2022/04/25 04:57:35;;;;;;;1.00;1.00;;;;;;;5.67;100.00;99851.16;7392571;19;20015;-54
2022/04/25 05:00:02;;;;;;;8.30;1.48;;;;;;;5.68;100.00;99863.72;7396431;19;20017;-55
2022/04/25 05:02:28;;;;;;;0.88;0.88;;;;;;;5.62;100.00;99867.47;7395622;19;20015;-54
2022/04/25 05:04:54;;;;;;;1.20;1.20;;;;;;;5.58;100.00;99864.84;7393365;19;20470;-55
2022/04/25 05:07:21;;;;;;;0.95;0.95;;;;;;;5.51;100.00;99876.09;7392941;19;20328;-54
2022/04/25 05:09:48;;;;;;;2.95;1.60;;;;;;;5.36;100.00;99874.97;7392556;19;20011;-54
2022/04/25 05:12:14;;;;;;;0.60;0.60;;;;;;;5.23;100.00;99871.41;7397381;19;20015;-54
2022/04/25 05:14:40;;;;;;;0.88;0.88;;;;;;;5.16;100.00;99877.13;7393202;19;20657;-54
2022/04/25 05:17:07;;;;;;;1.75;1.42;;;;;;;5.12;100.00;99876.47;7393123;19;20015;-54
2022/04/25 05:19:33;;;;;;;3.83;1.83;;;;;;;5.07;100.00;99879.75;7392691;19;20010;-55
2022/04/25 05:21:59;;;;;;;1.13;1.13;;;;;;;5.10;100.00;99879.66;7395750;19;20014;-55
2022/04/25 05:24:25;;;;;;;1.38;1.38;;;;;;;5.16;100.00;99882.66;7392694;19;20007;-54
2022/04/25 05:26:51;;;;;;;12.45;1.65;;;;;;;5.20;100.00;99888.84;7392096;19;20463;-54
2022/04/25 05:29:17;;;;;;;1.13;1.13;;;;;;;5.22;100.00;99891.94;7394919;19;20019;-51
2022/04/25 05:31:44;;;;;;;1.65;1.63;;;;;;;5.23;100.00;99893.50;7403036;19;20018;-51
2022/04/25 05:34:14;;;;;;;1.92;1.10;;;;;;;5.23;100.00;99887.97;7401091;19;20475;-51
2022/04/25 05:36:41;;;;;;;1.80;1.63;;;;;;;5.24;100.00;99895.06;7400002;19;20006;-51
2022/04/25 05:39:08;;;;;;;1.25;1.25;;;;;;;5.29;100.00;99903.56;7393897;19;20015;-51
2022/04/25 05:41:36;;;;;;;1.85;1.75;;;;;;;5.30;100.00;99899.59;7397081;19;20015;-51
2022/04/25 05:44:04;;;;;;;1.50;1.10;;;;;;;5.33;100.00;99895.16;7395884;19;20018;-51
2022/04/25 05:46:30;;;;;;;2.28;0.63;;;;;;;5.42;100.00;99900.03;7395999;19;20015;-51
2022/04/25 05:52:00;;;;;;;1.08;0.95;;;;;;;5.44;100.00;99895.63;7398679;19;20014;-51
2022/04/25 05:54:27;;;;;;;0.90;0.77;;;;;;;5.51;100.00;99902.94;7399685;19;20019;-51
2022/04/25 05:56:53;;;;;;;11.68;1.65;;;;;;;5.59;100.00;99905.03;7399457;19;20095;-51
2022/04/25 05:59:20;;;;;;;3.05;1.42;;;;;;;5.67;100.00;99909.16;7398916;19;20002;-51
2022/04/25 06:01:46;;;;;;;6.03;1.20;;;;;;;5.65;100.00;99908.03;7402378;19;20463;-51
2022/04/25 06:04:12;;;;;;;6.40;2.47;;;;;;;5.67;100.00;99911.91;7398378;19;20019;-51
2022/04/25 06:06:38;;;;;;;1.27;1.17;;;;;;;5.73;100.00;99910.16;7402568;19;20463;-51
2022/04/25 06:09:05;;;;;;;2.28;2.08;;;;;;;5.72;100.00;99902.28;7398906;19;20146;-51
2022/04/25 06:11:32;;;;;;;3.95;3.55;;;;;;;5.80;100.00;99904.41;7401403;19;20013;-51
2022/04/25 06:13:59;;;;;;;2.00;1.85;;;;;;;5.81;100.00;99914.25;7398339;19;20019;-51
2022/04/25 06:16:26;;;;;;;1.08;1.08;;;;;;;5.92;100.00;99911.16;7399050;19;20505;-51
2022/04/25 06:18:52;;;;;;;9.52;0.85;;;;;;;6.01;100.00;99906.53;7397856;19;20002;-51
2022/04/25 06:21:18;;;;;;;0.47;0.47;;;;;;;6.12;100.00;99903.44;7400835;19;20352;-51
2022/04/25 06:23:44;;;;;;;0.93;0.93;;;;;;;6.27;100.00;99914.78;7403227;19;20014;-51
2022/04/25 06:26:11;;;;;;;6.05;1.60;;;;;;;6.41;100.00;99917.09;7398820;19;20011;-51
2022/04/25 06:28:37;;;;;;;3.30;1.15;;;;;;;6.56;100.00;99909.88;7397797;19;20014;-51
2022/04/25 06:31:03;;;;;;;0.43;0.43;;;;;;;6.58;100.00;99912.97;7398440;19;20394;-51
2022/04/25 06:33:29;;;;;;;3.75;1.17;;;;;;;6.71;100.00;99908.16;7399151;19;20088;-51
2022/04/25 06:35:55;;;;;;;0.82;0.82;;;;;;;6.82;100.00;99919.66;7398790;19;20044;-51
2022/04/25 06:38:21;;;;;;;0.82;0.82;;;;;;;6.97;100.00;99917.16;7398638;19;20014;-52
2022/04/25 06:40:48;;;;;;;6.53;1.17;;;;;;;7.08;100.00;99912.75;7393999;19;20014;-51
2022/04/25 06:43:14;;;;;;;2.55;1.23;;;;;;;7.11;100.00;99914.63;7396927;19;20015;-51
2022/04/25 06:45:41;;;;;;;4.20;1.05;;;;;;;7.30;100.00;99923.84;7397415;19;20096;-51
2022/04/25 06:48:08;;;;;;;2.55;0.82;;;;;;;7.46;100.00;99918.88;7397489;19;20015;-51
2022/04/25 06:50:34;;;;;;;0.75;0.75;;;;;;;7.69;100.00;99919.63;7398452;19;20010;-51
2022/04/25 06:53:00;;;;;;;2.53;0.65;;;;;;;7.81;100.00;99913.22;7401097;19;20484;-51
2022/04/25 06:55:27;;;;;;;0.75;0.73;;;;;;;7.98;100.00;99918.06;7397242;19;20019;-51
2022/04/25 06:57:54;;;;;;;0.60;0.57;;;;;;;8.14;100.00;99912.25;7397819;19;20007;-51
2022/04/25 07:00:22;;;;;;;0.50;0.50;;;;;;;8.27;100.00;99914.97;7396550;19;20015;-51
2022/04/25 07:02:49;;;;;;;0.40;0.40;;;;;;;8.30;100.00;99916.81;7397331;19;20015;-51
2022/04/25 07:05:15;;;;;;;14.43;1.77;;;;;;;8.50;100.00;99911.63;7397086;19;20459;-52
2022/04/25 07:07:42;;;;;;;2.50;1.00;;;;;;;8.75;100.00;99911.31;7396761;19;20736;-51
2022/04/25 07:10:08;;;;;;;0.57;0.57;;;;;;;9.04;100.00;99924.75;7397519;19;20010;-51
2022/04/25 07:12:35;;;;;;;1.73;0.70;;;;;;;9.24;100.00;99911.19;7401627;19;20026;-51
2022/04/25 07:15:03;;;;;;;2.85;1.27;;;;;;;9.35;100.00;99910.69;7396713;19;20469;-51
2022/04/25 07:17:30;;;;;;;9.05;0.55;;;;;;;9.33;100.00;99910.41;7397203;19;20017;-52
2022/04/25 07:19:56;;;;;;;0.65;0.63;;;;;;;9.35;100.00;99910.69;7397479;19;20017;-51
2022/04/25 07:30:38;;;;;;;0.28;0.28;;;;;;;9.67;100.00;99915.56;7397052;19;20009;-51
2022/04/25 07:33:04;;;;;;;2.63;0.52;;;;;;;9.70;100.00;99920.19;7396070;19;20325;-51
2022/04/25 07:35:30;;;;;;;0.40;0.40;;;;;;;9.85;100.00;99916.25;7394244;19;20007;-52
2022/04/25 07:37:57;;;;;;;0.55;0.55;;;;;;;9.97;100.00;99916.53;7395714;19;20014;-52
2022/04/25 07:40:23;;;;;;;0.73;0.68;;;;;;;10.05;100.00;99912.19;7394369;19;20014;-51
2022/04/25 07:42:49;;;;;;;0.40;0.32;;;;;;;10.06;100.00;99917.28;7395520;19;20007;-51
2022/04/25 07:45:16;;;;;;;0.65;0.60;;;;;;;10.06;100.00;99917.28;7396597;19;20039;-51
2022/04/25 07:47:45;;;;;;;0.38;0.28;;;;;;;10.05;100.00;99912.19;7395638;19;20007;-51
2022/04/25 07:50:12;;;;;;;2.10;0.68;;;;;;;10.07;100.00;99916.03;7395668;19;20013;-51
2022/04/25 07:52:39;;;;;;;1.90;0.20;;;;;;;10.13;100.00;99913.41;7395324;19;20474;-51
2022/04/25 07:55:07;;;;;;;0.47;0.47;;;;;;;10.15;100.00;99910.94;7396245;19;20011;-51
2022/04/25 07:57:34;;;;;;;0.43;0.40;;;;;;;10.14;100.00;99915.72;7400121;19;20015;-51
2022/04/25 08:00:03;;;;;;;0.85;0.77;;;;;;;10.24;100.00;99914.44;7394896;19;20078;-52
2022/04/25 08:02:33;;;;;;;5.47;2.30;;;;;;;10.35;100.00;99911.88;7396870;19;20018;-51
2022/04/25 08:04:59;;;;;;;0.55;0.30;;;;;;;10.60;100.00;99917.00;7395576;19;20006;-51
2022/04/25 08:07:25;;;;;;;0.35;0.35;;;;;;;10.88;100.00;99930.75;7394944;19;20355;-51
2022/04/25 08:09:52;;;;;;;0.98;0.98;;;;;;;11.09;100.00;99926.84;7395829;19;20414;-51
2022/04/25 08:18:01;;;;;;;9.82;0.68;;;;;;;11.85;100.00;99931.56;7395123;19;20412;-51
2022/04/25 08:20:35;;;;;;;1.38;0.77;;;;;;;12.12;100.00;99920.84;7396760;19;20014;-51
2022/04/25 08:23:03;;;;;;;0.45;0.45;;;;;;;12.37;100.00;99921.44;7392564;19;20026;-51
2022/04/25 08:25:30;;;;;;;0.60;0.60;;;;;;;12.79;100.00;99930.16;7394928;19;20066;-51
2022/04/25 08:28:00;;;;;;;0.50;0.50;;;;;;;12.88;100.00;99930.03;7393949;19;20362;-51
2022/04/25 08:30:28;;;;;;;0.93;0.40;;;;;;;12.90;100.00;99933.09;7393716;19;20018;-51
2022/04/25 08:32:55;;;;;;;2.00;0.63;;;;;;;12.92;100.00;99930.56;7395231;19;20026;-51
2022/04/25 08:35:22;;;;;;;1.50;0.60;;;;;;;13.01;100.00;99933.22;7395790;19;20014;-53
2022/04/25 08:37:49;;;;;;;1.55;0.68;;;;;;;12.91;100.00;99931.81;7393937;19;20051;-50
2022/04/25 08:40:16;;;;;;;0.50;0.50;;;;;;;12.78;100.00;99934.19;7393884;19;20041;-51
2022/04/25 08:42:43;;;;;;;0.95;0.70;;;;;;;12.66;100.00;99932.53;7395125;19;20022;-50
2022/04/25 08:45:10;;;;;;;0.77;0.30;;;;;;;12.55;100.00;99933.16;7394299;19;20010;-51
2022/04/25 08:47:55;;;;;;;0.22;0.22;;;;;;;13.03;100.00;99939.09;7394174;19;20023;-51
2022/04/25 08:50:22;;;;;;;0.93;0.43;;;;;;;13.49;100.00;99942.69;7394447;19;20007;-51
2022/04/25 08:52:49;;;;;;;2.40;0.47;;;;;;;13.49;100.00;99942.69;7394307;19;20006;-51
2022/04/25 08:55:16;;;;;;;0.40;0.40;;;;;;;13.75;100.00;99944.72;7393826;19;20044;-52
2022/04/25 08:57:47;;;;;;;0.65;0.65;;;;;;;13.80;100.00;99927.19;7398648;19;20574;-52
2022/04/25 09:00:15;;;;;;;0.22;0.22;;;;;;;14.09;100.00;99926.94;7392992;19;20017;-52
2022/04/25 09:02:44;;;;;;;0.45;0.43;;;;;;;14.09;100.00;99933.31;7394503;19;20035;-52
2022/04/25 09:05:12;;;;;;;1.65;0.25;;;;;;;14.02;100.00;99933.75;7391100;19;20483;-53
2022/04/25 09:07:39;;;;;;;0.68;0.40;;;;;;;13.97;100.00;99942.88;7391745;19;20011;-52
2022/04/25 09:10:08;;;;;;;0.55;0.40;;;;;;;13.88;100.00;99939.50;7393636;19;20014;-53
2022/04/25 09:12:38;;;;;;;0.50;0.50;;;;;;;13.76;100.00;99949.03;7396588;19;20070;-52
2022/04/25 09:15:06;;;;;;;1.40;0.30;;;;;;;13.52;100.00;99946.53;7394082;19;20070;-52
2022/04/25 09:17:37;;;;;;;0.47;0.47;;;;;;;13.49;100.00;99953.88;7393229;19;20049;-53
2022/04/25 09:20:04;;;;;;;0.85;0.57;;;;;;;13.36;100.00;99956.28;7392621;19;20014;-53
2022/04/25 09:22:35;;;;;;;1.65;0.68;;;;;;;13.34;100.00;99963.63;7395766;19;20042;-52
2022/04/25 09:25:12;;;;;;;3.20;0.50;;;;;;;13.31;100.00;99959.78;7392899;19;20358;-53
2022/04/25 09:27:41;;;;;;;20.35;0.82;;;;;;;13.35;100.00;99960.34;7396623;19;20098;-53
2022/04/25 09:30:18;;;;;;;0.90;0.70;;;;;;;13.52;100.00;99972.47;7393066;19;20040;-52
2022/04/25 09:32:46;;;;;;;7.53;0.90;;;;;;;13.57;100.00;99977.38;7393471;19;20018;-52
2022/04/25 09:35:35;;;;;;;0.77;0.60;;;;;;;13.60;100.00;99973.56;7392257;19;20049;-53
2022/04/25 09:38:05;;;;;;;0.73;0.68;;;;;;;13.90;100.00;99976.16;7392231;19;20017;-52
2022/04/25 09:40:33;;;;;;;0.30;0.30;;;;;;;14.12;100.00;99965.16;7391747;19;20503;-53
2022/04/25 09:43:08;;;;;;;0.57;0.50;;;;;;;14.11;100.00;99969.19;7392355;19;20051;-53
2022/04/25 09:45:42;;;;;;;1.05;0.80;;;;;;;14.09;100.00;99971.72;7393619;19;20363;-53
2022/04/25 09:48:15;;;;;;;0.30;0.30;;;;;;;14.09;100.00;99980.91;7391672;19;20018;-53
2022/04/25 09:50:46;;;;;;;0.50;0.47;;;;;;;14.03;100.00;99980.09;7393839;19;20021;-57
2022/04/25 09:53:12;;;;;;;0.38;0.38;;;;;;;14.05;100.00;99974.00;7392685;19;20488;-58
2022/04/25 09:55:39;;;;;;;0.95;0.40;;;;;;;14.14;100.00;99971.75;7393352;19;20006;-57
2022/04/25 09:58:22;;;;;;;1.80;0.75;;;;;;;14.53;100.00;99972.06;7393664;19;20130;-57
2022/04/25 10:00:53;;;;;;;1.20;0.30;;;;;;;14.73;100.00;99963.53;7390958;19;20056;-57
2022/04/25 10:03:32;;;;;;;14.15;0.63;;;;;;;14.85;100.00;99965.16;7390973;19;20022;-57
2022/04/25 10:06:01;;;;;;;0.98;0.57;;;;;;;15.03;100.00;99964.72;7391877;19;20015;-57
2022/04/25 10:08:31;;;;;;;0.25;0.17;;;;;;;15.31;100.00;99967.59;7391521;19;20467;-57
2022/04/25 10:11:00;;;;;;;0.38;0.38;;;;;;;15.30;99.54;99959.72;7391541;19;20014;-59
2022/04/25 10:13:27;;;;;;;0.30;0.30;;;;;;;15.04;98.66;99966.25;7391831;19;20373;-57
2022/04/25 10:15:56;;;;;;;8.13;0.40;;;;;;;14.90;100.00;99967.19;7394799;19;20010;-57
2022/04/25 10:18:23;;;;;;;1.15;0.40;;;;;;;14.94;100.00;99973.31;7400429;19;20359;-57
2022/04/25 10:20:49;;;;;;;1.42;0.52;;;;;;;14.93;100.00;99971.81;7399486;19;20006;-58
2022/04/25 10:23:16;;;;;;;1.00;0.73;;;;;;;14.94;100.00;99962.09;7401325;19;20014;-57
2022/04/25 10:25:50;;;;;;;0.73;0.47;;;;;;;15.06;100.00;99968.53;7395819;19;20023;-57
2022/04/25 10:28:24;;;;;;;3.47;0.52;;;;;;;15.20;100.00;99968.34;7399868;19;20010;-57
2022/04/25 10:30:51;;;;;;;3.30;0.47;;;;;;;15.24;100.00;99972.97;7400168;19;20495;-58
2022/04/25 10:33:20;;;;;;;1.45;0.85;;;;;;;15.43;100.00;99979.66;7398222;19;20019;-57
2022/04/25 10:35:48;;;;;;;3.13;0.50;;;;;;;15.40;100.00;99983.47;7398140;19;20014;-57
2022/04/25 10:38:49;;;;;;;0.75;0.20;;;;;;;15.44;100.00;99986.84;7398853;19;20379;-57
2022/04/25 10:44:16;;;;;;;0.67;0.57;;;;;;;15.65;100.00;99985.34;7395591;19;19926;-57
2022/04/25 10:47:04;;;;;;;0.43;0.30;;;;;;;15.97;100.00;99986.69;7395260;19;20275;-58
2022/04/25 10:49:34;;;;;;;0.43;0.20;;;;;;;16.06;100.00;100003.28;7399249;19;20006;-57
2022/04/25 10:52:02;;;;;;;0.52;0.40;;;;;;;15.87;100.00;99993.81;7398418;19;20423;-57
2022/04/25 10:54:46;;;;;;;3.53;0.73;;;;;;;15.94;100.00;100001.72;7395539;19;20081;-57
2022/04/25 10:57:14;;;;;;;1.40;0.47;;;;;;;16.05;100.00;99987.69;7397668;19;20010;-58
2022/04/25 10:59:41;;;;;;;0.40;0.40;;;;;;;16.16;100.00;99996.13;7393625;19;20015;-57
2022/04/25 11:02:24;;;;;;;2.63;0.60;;;;;;;16.14;100.00;99997.91;7399765;19;20023;-57
2022/04/25 11:05:29;;;;;;;0.57;0.47;;;;;;;15.85;100.00;99999.94;7395812;19;20494;-57
2022/04/25 11:08:18;;;;;;;0.55;0.55;;;;;;;15.59;100.00;99993.00;7393514;19;20408;-58
2022/04/25 11:10:58;;;;;;;1.45;0.98;;;;;;;15.49;100.00;100002.91;7396783;19;20010;-58
2022/04/25 11:13:28;;;;;;;2.47;0.60;;;;;;;15.45;100.00;99991.94;7399262;19;20048;-57
2022/04/25 11:15:56;;;;;;;7.97;0.65;;;;;;;15.31;100.00;100000.53;7396548;19;20478;-58
2022/04/25 11:18:37;;;;;;;1.25;0.50;;;;;;;15.36;100.00;100003.34;7397701;19;20506;-58
2022/04/25 11:21:12;;;;;;;;;;;;;;;15.61;100.00;100001.69;7399363;19;20022;-57
2022/04/25 11:23:44;;;;;;;1.15;0.82;;;;;;;15.82;100.00;100006.56;7394690;19;19978;-57
2022/04/25 11:26:33;;;;;;;0.75;0.20;;;;;;;15.83;100.00;100001.75;7394251;19;20016;-57
2022/04/25 11:29:03;;;;;;;0.50;0.50;;;;;;;15.96;100.00;100006.84;7396282;19;20006;-57
2022/04/25 11:31:31;;;;;;;4.38;0.50;;;;;;;16.11;100.00;99999.72;7396206;19;20018;-57
2022/04/25 11:34:00;;;;;;;2.08;1.02;;;;;;;16.06;100.00;99997.66;7393279;19;20013;-58
2022/04/25 11:36:29;;;;;;;1.73;0.73;;;;;;;16.08;100.00;99995.13;7393946;19;20015;-58
2022/04/25 11:41:43;;;;;;;0.98;0.50;;;;;;;16.41;100.00;99995.13;7395755;19;20371;-58
2022/04/25 11:44:09;;;;;;;3.22;0.45;;;;;;;16.37;100.00;100000.22;7393422;19;20013;-57
2022/04/25 11:46:36;;;;;;;1.35;0.88;;;;;;;16.47;100.00;99987.44;7393387;19;20456;-57
2022/04/25 11:49:05;;;;;;;1.27;0.47;;;;;;;16.46;100.00;99997.13;7396566;19;20400;-57
2022/04/25 11:51:33;;;;;;;1.70;0.70;;;;;;;16.49;100.00;99995.34;7394916;19;20432;-57
2022/04/25 11:54:04;;;;;;;1.10;0.70;;;;;;;16.38;100.00;99984.88;7391303;19;20010;-58
2022/04/25 11:56:32;;;;;;;1.38;0.75;;;;;;;16.17;100.00;99994.09;7394531;19;20370;-57
2022/04/25 11:59:06;;;;;;;0.80;0.30;;;;;;;16.34;100.00;99994.84;7393328;19;20109;-57
2022/04/25 12:01:39;;;;;;;1.35;0.77;;;;;;;16.58;100.00;99992.31;7393457;19;20435;-58
2022/04/25 12:04:35;;;;;;;2.28;0.63;;;;;;;17.15;100.00;99988.84;7389494;19;20039;-55
2022/04/25 12:07:07;;;;;;;0.45;0.30;;;;;;;17.51;99.69;99986.91;7395027;19;20023;-57